Terminal Aerodrome Forecast
Issued by NWS

Home | Current Version | Previous Version | Text Only | Print | Product List | Glossary On
Versions: 1 2 3 4 5 6 7 8 9 10 11 12
000
FTUS45 KRIW 221100
TAFCOD
TAF
KCOD 221123Z 2212/2312 VRB06KT P6SM SKC
     FM221800 15007KT P6SM SKC
     FM230300 20007KT P6SM SCT120 BKN250
     FM230900 21008KT P6SM SCT110 BKN200 WS020/26030KT
      AMD LTD TO CLD VIS AND WIND=

USA.gov is the U.S. government's official web portal to all federal, state and local government web resources and services.